Time;durP1;ratioP1;P1;durP2;ratioP2;P2;SDS_P1;SDS_P2;PMS_P1;PMS_P2;Temp;Humidity;BMP_temperature;BMP_pressure;BME280_temperature;BME280_humidity;BME280_pressure;Samples;Min_cycle;Max_cycle;Signal;HPM_P1;HPM_P2
2022/03/17 00:00:07;;;;;;;75.70;31.48;;;10.30;99.90;;;;;;5112428;27;20047;-66
2022/03/17 00:02:33;;;;;;;75.55;31.27;;;10.30;99.90;;;;;;5106535;27;20066;-66
2022/03/17 00:04:58;;;;;;;80.18;31.05;;;10.30;99.90;;;;;;5111090;27;20047;-67
2022/03/17 00:07:24;;;;;;;70.80;29.80;;;10.30;99.90;;;;;;5113244;27;20137;-67
2022/03/17 00:09:50;;;;;;;77.50;30.30;;;10.30;99.90;;;;;;5111600;27;20590;-67
2022/03/17 00:12:15;;;;;;;76.32;30.70;;;10.30;99.90;;;;;;5126133;27;20080;-66
2022/03/17 00:14:41;;;;;;;77.50;31.42;;;10.30;99.90;;;;;;5112574;27;20073;-66
2022/03/17 00:17:08;;;;;;;76.47;31.20;;;10.30;99.90;;;;;;5095171;28;20069;-67
2022/03/17 00:19:33;;;;;;;73.85;31.23;;;10.30;99.90;;;;;;5111596;28;20050;-67
2022/03/17 00:21:59;;;;;;;71.53;30.40;;;10.30;99.90;;;;;;5112596;28;20035;-67
2022/03/17 00:24:25;;;;;;;74.95;30.38;;;10.20;99.90;;;;;;5112862;28;20085;-66
2022/03/17 00:26:51;;;;;;;73.97;31.00;;;10.20;99.90;;;;;;5111116;28;20067;-67
2022/03/17 00:29:19;;;;;;;77.38;30.30;;;10.20;99.90;;;;;;5130406;28;20043;-66
2022/03/17 00:31:44;;;;;;;76.60;29.73;;;10.20;99.90;;;;;;5112073;28;20065;-67
2022/03/17 00:34:10;;;;;;;77.82;30.92;;;10.20;99.90;;;;;;5113245;28;20122;-67
2022/03/17 00:36:36;;;;;;;77.93;29.90;;;10.20;99.90;;;;;;5130753;28;20385;-66
2022/03/17 00:39:04;;;;;;;78.22;31.05;;;10.20;99.90;;;;;;5111643;28;20046;-66
2022/03/17 00:41:30;;;;;;;77.55;30.67;;;10.20;99.90;;;;;;5110898;28;20126;-67
2022/03/17 00:43:55;;;;;;;80.15;32.00;;;10.20;99.90;;;;;;5112486;28;20119;-66
2022/03/17 00:46:21;;;;;;;77.55;31.95;;;10.10;99.90;;;;;;5112265;28;20795;-66
2022/03/17 00:48:47;;;;;;;77.85;31.80;;;10.10;99.90;;;;;;5111865;28;20122;-67
2022/03/17 00:51:12;;;;;;;78.70;30.73;;;10.10;99.90;;;;;;5112280;28;20107;-67
2022/03/17 00:53:38;;;;;;;83.68;32.90;;;10.10;99.90;;;;;;5111577;27;20043;-66
2022/03/17 00:56:04;;;;;;;77.65;32.05;;;10.10;99.90;;;;;;5110310;28;20068;-68
2022/03/17 00:58:30;;;;;;;72.32;31.38;;;10.10;99.90;;;;;;5108807;27;20070;-66
2022/03/17 01:00:56;;;;;;;78.03;31.77;;;10.10;99.90;;;;;;5093630;28;20031;-66
2022/03/17 01:03:22;;;;;;;81.38;34.00;;;10.10;99.90;;;;;;5111309;28;20394;-67
2022/03/17 01:05:47;;;;;;;78.40;30.45;;;10.10;99.90;;;;;;5112411;28;20046;-67
2022/03/17 01:08:13;;;;;;;83.88;33.88;;;10.10;99.90;;;;;;5095100;28;20466;-67
2022/03/17 01:10:39;;;;;;;77.32;31.35;;;10.10;99.90;;;;;;5112180;28;20050;-67
2022/03/17 01:13:05;;;;;;;77.50;32.10;;;10.10;99.90;;;;;;5107507;27;20040;-66
2022/03/17 01:15:31;;;;;;;75.18;31.17;;;10.10;99.90;;;;;;5112671;27;20042;-67
2022/03/17 01:17:57;;;;;;;75.57;31.17;;;10.10;99.90;;;;;;5113717;27;20508;-67
2022/03/17 01:20:22;;;;;;;77.97;32.13;;;10.10;99.90;;;;;;5115704;27;20066;-66
2022/03/17 01:22:48;;;;;;;73.88;30.75;;;10.10;99.90;;;;;;5106105;27;20043;-66
2022/03/17 01:25:14;;;;;;;77.78;31.05;;;10.10;99.90;;;;;;5107998;27;20046;-67
2022/03/17 01:27:40;;;;;;;80.70;31.92;;;10.10;99.90;;;;;;5104716;27;20118;-67
2022/03/17 01:30:10;;;;;;;78.63;30.50;;;10.10;99.90;;;;;;5113830;27;20130;-67
2022/03/17 01:32:38;;;;;;;77.10;31.38;;;10.10;99.90;;;;;;5111858;27;20035;-67
2022/03/17 01:35:05;;;;;;;74.82;30.58;;;10.10;99.90;;;;;;5108018;27;20093;-67
2022/03/17 01:37:31;;;;;;;79.63;33.30;;;10.10;99.90;;;;;;5113938;27;20141;-66
2022/03/17 01:39:56;;;;;;;80.05;33.03;;;10.10;99.90;;;;;;5114276;27;20133;-67
2022/03/17 01:42:22;;;;;;;80.38;32.53;;;10.10;99.90;;;;;;5131577;27;20047;-67
2022/03/17 01:44:48;;;;;;;84.07;33.95;;;10.10;99.90;;;;;;5114313;27;20068;-67
2022/03/17 01:47:29;;;;;;;82.65;34.00;;;10.10;99.90;;;;;;5115640;27;20042;-66
2022/03/17 01:49:56;;;;;;;85.45;33.45;;;10.00;99.90;;;;;;5112068;27;20039;-67
2022/03/17 01:52:21;;;;;;;78.78;32.63;;;10.00;99.90;;;;;;5115521;27;20062;-67
2022/03/17 01:54:47;;;;;;;83.28;33.95;;;10.00;99.90;;;;;;5128556;27;20382;-67
2022/03/17 01:57:13;;;;;;;83.13;34.50;;;9.90;99.90;;;;;;5133917;27;20039;-67
2022/03/17 01:59:41;;;;;;;88.68;35.50;;;9.90;99.90;;;;;;5114582;27;20043;-67
2022/03/17 02:02:08;;;;;;;86.20;34.60;;;9.90;99.90;;;;;;5098200;27;20453;-67
2022/03/17 02:04:35;;;;;;;86.93;36.10;;;9.90;99.90;;;;;;5109918;27;20039;-67
2022/03/17 02:07:05;;;;;;;96.90;37.53;;;9.80;99.90;;;;;;5115565;27;20043;-67
2022/03/17 02:09:34;;;;;;;87.78;36.38;;;9.80;99.90;;;;;;5113330;27;20047;-67
2022/03/17 02:15:05;;;;;;;88.32;36.45;;;9.80;99.90;;;;;;5114324;27;20116;-67
2022/03/17 02:17:32;;;;;;;88.72;35.30;;;9.80;99.90;;;;;;5115279;27;20047;-67
2022/03/17 02:20:00;;;;;;;91.97;36.47;;;9.90;99.90;;;;;;5113666;27;20053;-67
2022/03/17 02:22:27;;;;;;;88.28;35.85;;;9.90;99.90;;;;;;5107610;27;20412;-67
2022/03/17 02:27:45;;;;;;;97.57;37.92;;;9.90;99.90;;;;;;5114645;27;20054;-67
2022/03/17 02:30:12;;;;;;;89.55;36.45;;;9.90;99.90;;;;;;5113579;27;20035;-68
2022/03/17 02:32:38;;;;;;;93.97;36.92;;;9.90;99.90;;;;;;5114014;27;20055;-67
2022/03/17 02:35:10;;;;;;;98.63;38.22;;;9.90;99.90;;;;;;5114492;27;20370;-67
2022/03/17 02:37:35;;;;;;;92.70;37.47;;;10.00;99.90;;;;;;5113463;27;20047;-68
2022/03/17 02:40:04;;;;;;;96.45;38.67;;;10.00;99.90;;;;;;5114036;27;20093;-67
2022/03/17 02:42:30;;;;;;;97.00;39.22;;;9.90;99.90;;;;;;5109174;27;20134;-67
2022/03/17 02:44:58;;;;;;;91.88;37.58;;;10.00;99.90;;;;;;5112405;27;20122;-67
2022/03/17 02:47:23;;;;;;;95.28;37.75;;;10.00;99.90;;;;;;5107408;27;20035;-67
2022/03/17 02:49:49;;;;;;;102.38;38.75;;;10.00;99.90;;;;;;5110324;27;20582;-68
2022/03/17 02:52:14;;;;;;;95.85;39.10;;;10.00;99.90;;;;;;5103129;27;20087;-67
2022/03/17 02:54:40;;;;;;;101.40;39.47;;;10.00;99.90;;;;;;5111767;27;20039;-68
2022/03/17 02:57:09;;;;;;;97.30;39.75;;;10.00;99.90;;;;;;5112614;27;20047;-67
2022/03/17 02:59:34;;;;;;;98.28;39.13;;;10.00;99.90;;;;;;5113173;27;20453;-67
2022/03/17 03:02:04;;;;;;;99.55;39.40;;;10.00;99.90;;;;;;5105591;27;20074;-67
2022/03/17 03:04:33;;;;;;;103.50;39.67;;;10.00;99.90;;;;;;5112019;27;20062;-67
2022/03/17 03:07:02;;;;;;;106.57;41.75;;;10.10;99.90;;;;;;5113921;27;20095;-66
2022/03/17 03:09:28;;;;;;;103.72;42.38;;;10.10;99.90;;;;;;5112898;27;20043;-66
2022/03/17 03:11:53;;;;;;;106.85;41.35;;;10.10;99.90;;;;;;5112364;27;20150;-68
2022/03/17 03:14:19;;;;;;;99.45;40.53;;;10.10;99.90;;;;;;5114392;27;20475;-68
2022/03/17 03:16:45;;;;;;;105.57;41.35;;;10.10;99.90;;;;;;5113706;27;20122;-67
2022/03/17 03:19:10;;;;;;;106.13;41.03;;;10.10;99.90;;;;;;5112542;27;20114;-67
2022/03/17 03:21:36;;;;;;;105.82;40.80;;;10.10;99.90;;;;;;5113432;27;20489;-68
2022/03/17 03:24:02;;;;;;;102.85;42.20;;;10.10;99.90;;;;;;5107741;27;20039;-68
2022/03/17 03:26:27;;;;;;;111.07;42.70;;;10.20;99.90;;;;;;5130532;27;20430;-67
2022/03/17 03:28:54;;;;;;;112.53;42.95;;;10.20;99.90;;;;;;5113145;27;20047;-67
2022/03/17 03:31:21;;;;;;;106.63;41.70;;;10.20;99.90;;;;;;5109593;28;20101;-67
2022/03/17 03:33:47;;;;;;;118.90;45.05;;;10.20;99.90;;;;;;5108848;27;20046;-67
2022/03/17 03:38:58;;;;;;;113.68;43.95;;;10.20;99.90;;;;;;5111689;27;20053;-68
2022/03/17 03:41:23;;;;;;;119.13;44.70;;;10.10;99.90;;;;;;5112853;27;20042;-68
2022/03/17 03:43:49;;;;;;;125.07;46.85;;;10.10;99.90;;;;;;5112358;27;20039;-68
2022/03/17 03:46:14;;;;;;;121.90;44.60;;;10.10;99.90;;;;;;5095322;27;20544;-68
2022/03/17 03:48:41;;;;;;;123.72;45.28;;;10.20;99.90;;;;;;5111958;27;20041;-67
2022/03/17 03:51:07;;;;;;;125.68;46.13;;;10.20;99.90;;;;;;5112383;27;20042;-67
2022/03/17 03:56:16;;;;;;;133.75;45.65;;;10.30;99.90;;;;;;5108528;27;20046;-66
2022/03/17 03:58:42;;;;;;;125.07;45.53;;;10.30;99.90;;;;;;5111421;27;20039;-68
2022/03/17 04:01:08;;;;;;;129.10;45.80;;;10.30;99.90;;;;;;5110634;28;20070;-67
2022/03/17 04:03:33;;;;;;;132.52;47.35;;;10.30;99.90;;;;;;5107077;27;20488;-68
2022/03/17 04:05:59;;;;;;;132.73;46.88;;;10.30;99.90;;;;;;5110959;27;20047;-68
2022/03/17 04:08:25;;;;;;;132.23;48.00;;;10.30;99.90;;;;;;5112651;27;20035;-68
2022/03/17 04:10:50;;;;;;;142.50;49.67;;;10.30;99.90;;;;;;5112589;27;20052;-69
2022/03/17 04:13:16;;;;;;;151.93;49.97;;;10.30;99.90;;;;;;5112385;28;20409;-68
2022/03/17 04:15:41;;;;;;;142.15;49.63;;;10.10;99.90;;;;;;5108120;27;20062;-69
2022/03/17 04:18:07;;;;;;;148.32;50.33;;;10.10;99.90;;;;;;5130724;27;20066;-69
2022/03/17 04:20:33;;;;;;;147.82;50.75;;;10.10;99.90;;;;;;5113568;28;20050;-69
2022/03/17 04:22:58;;;;;;;156.75;53.05;;;10.00;99.90;;;;;;5109245;28;20028;-70
2022/03/17 04:25:24;;;;;;;162.57;53.00;;;10.00;99.90;;;;;;5112574;28;20035;-71
2022/03/17 04:27:50;;;;;;;158.82;52.38;;;9.90;99.90;;;;;;5094782;28;20043;-73
2022/03/17 04:30:15;;;;;;;158.75;51.13;;;9.90;99.90;;;;;;5109778;28;20043;-71
2022/03/17 04:32:41;;;;;;;160.70;51.40;;;9.90;99.90;;;;;;5112028;28;20035;-72
2022/03/17 04:35:07;;;;;;;170.07;54.20;;;9.80;99.90;;;;;;5111867;28;20031;-73
2022/03/17 04:37:33;;;;;;;165.07;51.97;;;9.70;99.90;;;;;;5094807;28;20050;-73
2022/03/17 04:39:58;;;;;;;177.40;56.97;;;9.80;99.90;;;;;;5106657;28;20486;-71
2022/03/17 04:42:24;;;;;;;191.70;57.92;;;9.70;99.90;;;;;;5112564;28;20047;-72
2022/03/17 04:44:50;;;;;;;111.43;44.78;;;9.60;99.90;;;;;;5111110;28;20035;-72
2022/03/17 04:47:15;;;;;;;41.42;14.40;;;9.70;99.90;;;;;;5113050;28;20040;-73
2022/03/17 04:49:41;;;;;;;36.00;14.85;;;9.60;99.90;;;;;;5107700;28;20036;-71
2022/03/17 04:53:26;;;;;;;29.27;12.95;;;9.30;99.90;;;;;;5107977;27;20176;-76
2022/03/17 04:54:53;;;;;;;25.05;9.45;;;9.20;99.90;;;;;;5109490;27;20085;-75
2022/03/17 04:57:18;;;;;;;42.80;19.98;;;9.00;99.90;;;;;;5116632;27;20073;-74
2022/03/17 04:59:44;;;;;;;35.42;13.45;;;8.80;99.90;;;;;;5115078;27;20043;-76
2022/03/17 05:02:13;;;;;;;45.45;19.83;;;8.50;99.90;;;;;;5115868;27;20046;-73
2022/03/17 05:04:39;;;;;;;28.90;11.88;;;8.50;99.90;;;;;;5115616;27;20126;-73
2022/03/17 05:07:04;;;;;;;34.67;15.40;;;8.40;99.90;;;;;;5098262;27;20550;-72
2022/03/17 05:09:30;;;;;;;45.30;20.65;;;8.40;99.90;;;;;;5114973;27;20119;-75
2022/03/17 05:11:55;;;;;;;33.22;17.02;;;8.30;99.90;;;;;;5116416;27;20043;-73
2022/03/17 05:14:21;;;;;;;26.25;11.68;;;8.20;99.90;;;;;;5115294;27;20286;-72
2022/03/17 05:16:46;;;;;;;37.88;18.15;;;8.10;99.90;;;;;;5113596;27;20039;-74
2022/03/17 05:19:12;;;;;;;35.38;13.38;;;8.20;99.90;;;;;;5115161;27;20065;-73
2022/03/17 05:21:38;;;;;;;43.25;18.90;;;8.10;99.90;;;;;;5114190;27;20054;-72
2022/03/17 05:24:04;;;;;;;37.05;17.60;;;8.10;99.90;;;;;;5100647;27;20508;-70
2022/03/17 05:26:30;;;;;;;37.55;15.05;;;8.00;99.90;;;;;;5114920;27;20047;-73
2022/03/17 05:28:56;;;;;;;35.35;14.55;;;8.00;99.90;;;;;;5117728;27;20389;-73
2022/03/17 05:31:21;;;;;;;35.58;13.00;;;8.00;99.90;;;;;;5115590;27;20035;-72
2022/03/17 05:33:47;;;;;;;45.08;17.35;;;8.10;99.90;;;;;;5115803;27;20038;-72
2022/03/17 05:36:12;;;;;;;41.75;15.77;;;8.10;99.90;;;;;;5113719;27;20035;-72
2022/03/17 05:38:38;;;;;;;35.08;13.35;;;8.00;99.90;;;;;;5111158;27;20047;-70
2022/03/17 05:41:05;;;;;;;42.90;18.15;;;8.00;99.90;;;;;;5116141;27;20039;-73
2022/03/17 05:43:31;;;;;;;35.95;14.50;;;8.00;99.90;;;;;;5109167;27;20047;-72
2022/03/17 05:45:57;;;;;;;51.83;21.65;;;8.00;99.90;;;;;;5115851;27;20613;-72
2022/03/17 05:48:23;;;;;;;45.55;19.20;;;7.90;99.90;;;;;;5110577;27;20043;-70
2022/03/17 05:50:49;;;;;;;60.58;22.20;;;8.00;99.90;;;;;;5114195;27;20036;-72
2022/03/17 05:53:14;;;;;;;45.13;18.52;;;7.90;99.90;;;;;;5116149;27;20036;-71
2022/03/17 05:55:40;;;;;;;55.35;21.15;;;7.90;99.90;;;;;;5111697;27;20043;-71
2022/03/17 05:58:06;;;;;;;34.20;11.77;;;7.90;99.90;;;;;;5110677;27;20038;-72
2022/03/17 06:00:33;;;;;;;52.03;19.77;;;7.90;99.90;;;;;;5115293;27;20511;-72
2022/03/17 06:03:00;;;;;;;49.20;17.52;;;7.90;99.90;;;;;;5114973;27;20038;-72
2022/03/17 06:05:27;;;;;;;44.30;15.15;;;7.90;99.90;;;;;;5133129;27;20062;-74
2022/03/17 06:07:54;;;;;;;43.65;15.43;;;7.90;99.90;;;;;;5115597;27;20043;-71
2022/03/17 06:10:26;;;;;;;41.95;14.15;;;7.90;99.90;;;;;;5114505;27;20507;-71
2022/03/17 06:12:53;;;;;;;39.40;14.95;;;7.90;99.90;;;;;;5115446;27;20088;-71
2022/03/17 06:15:20;;;;;;;44.50;14.35;;;7.90;99.90;;;;;;5115314;27;20035;-72
2022/03/17 06:17:53;;;;;;;37.00;13.18;;;7.90;99.90;;;;;;5115135;27;20043;-72
2022/03/17 06:20:27;;;;;;;41.38;13.23;;;7.80;99.90;;;;;;5100948;27;20922;-71
2022/03/17 06:22:56;;;;;;;45.97;14.48;;;7.90;99.90;;;;;;5114942;27;20088;-72
2022/03/17 06:25:24;;;;;;;31.45;9.15;;;7.80;99.90;;;;;;5133224;27;20039;-70
2022/03/17 06:27:50;;;;;;;42.20;14.05;;;7.80;99.90;;;;;;5113324;27;20039;-71
2022/03/17 06:30:18;;;;;;;25.05;8.13;;;7.90;99.90;;;;;;5114154;27;20035;-75
2022/03/17 06:32:44;;;;;;;39.17;12.05;;;7.90;99.90;;;;;;5111033;27;20383;-70
2022/03/17 06:35:17;;;;;;;29.92;8.85;;;7.90;99.90;;;;;;5112788;27;20042;-70
2022/03/17 06:37:47;;;;;;;25.02;6.72;;;7.90;99.90;;;;;;5113465;27;20550;-72
2022/03/17 06:40:14;;;;;;;18.30;6.03;;;8.00;99.90;;;;;;5113291;27;20061;-72
2022/03/17 06:42:39;;;;;;;21.60;5.57;;;8.00;99.90;;;;;;5113127;27;20103;-74
2022/03/17 06:45:06;;;;;;;19.42;5.65;;;8.00;99.90;;;;;;5113713;27;20511;-72
2022/03/17 06:47:32;;;;;;;26.17;4.75;;;8.00;99.90;;;;;;5111482;27;20031;-71
2022/03/17 06:49:57;;;;;;;20.80;5.03;;;8.00;99.90;;;;;;5105786;27;20383;-73
2022/03/17 06:52:23;;;;;;;19.20;5.20;;;8.00;99.90;;;;;;5113039;27;20035;-71
2022/03/17 06:54:50;;;;;;;26.17;6.55;;;8.00;99.90;;;;;;5112699;27;20046;-72
2022/03/17 06:57:17;;;;;;;25.83;6.15;;;8.00;99.90;;;;;;5112062;27;20045;-71
2022/03/17 06:59:43;;;;;;;34.72;7.93;;;8.00;99.90;;;;;;5112221;27;20038;-72
2022/03/17 07:02:08;;;;;;;23.52;5.03;;;7.90;99.90;;;;;;5112926;27;20130;-71
2022/03/17 07:04:34;;;;;;;19.83;4.35;;;7.90;99.90;;;;;;5108057;27;20074;-71
2022/03/17 07:06:59;;;;;;;30.33;6.30;;;8.00;99.90;;;;;;5091460;27;20038;-71
2022/03/17 07:09:25;;;;;;;21.95;4.47;;;7.90;99.90;;;;;;5107822;27;20049;-72
2022/03/17 07:11:50;;;;;;;40.35;6.28;;;7.90;99.90;;;;;;5111491;27;20071;-72
2022/03/17 07:14:16;;;;;;;19.40;4.15;;;7.90;99.90;;;;;;5113509;27;20478;-71
2022/03/17 07:16:41;;;;;;;13.75;2.97;;;7.90;99.90;;;;;;5113575;27;20366;-70
2022/03/17 07:19:07;;;;;;;21.45;4.35;;;7.90;99.90;;;;;;5103237;27;20031;-72
2022/03/17 07:21:33;;;;;;;28.65;4.35;;;8.00;99.90;;;;;;5129641;27;20072;-69
2022/03/17 07:23:59;;;;;;;28.25;4.13;;;8.10;99.90;;;;;;5110407;27;20045;-71
2022/03/17 07:26:26;;;;;;;19.60;4.50;;;8.00;99.90;;;;;;5110876;27;20042;-71
2022/03/17 07:28:53;;;;;;;21.52;4.43;;;8.10;99.90;;;;;;5112377;27;20035;-71
2022/03/17 07:31:19;;;;;;;29.85;5.18;;;8.00;99.90;;;;;;5114183;27;20039;-72
2022/03/17 07:33:45;;;;;;;14.88;3.15;;;8.00;99.90;;;;;;5113005;27;20039;-72
2022/03/17 07:36:10;;;;;;;15.05;3.40;;;8.00;99.90;;;;;;5114029;27;20063;-70
2022/03/17 07:38:36;;;;;;;14.82;2.67;;;8.10;99.90;;;;;;5112859;27;20086;-70
2022/03/17 07:41:02;;;;;;;13.00;2.40;;;8.10;99.90;;;;;;5096927;27;20039;-71
2022/03/17 07:43:27;;;;;;;15.13;2.88;;;8.10;99.90;;;;;;5112813;27;20078;-70
2022/03/17 07:45:55;;;;;;;27.98;3.22;;;8.10;99.90;;;;;;5112070;27;20536;-69
2022/03/17 07:48:21;;;;;;;18.48;2.45;;;8.10;99.90;;;;;;5104686;27;20043;-71
2022/03/17 07:50:47;;;;;;;17.25;2.33;;;8.10;99.90;;;;;;5111955;27;20046;-70
2022/03/17 07:53:12;;;;;;;16.55;2.95;;;8.10;99.90;;;;;;5084570;27;20387;-68
2022/03/17 07:55:38;;;;;;;20.40;2.30;;;8.00;99.90;;;;;;5113316;27;20051;-69
2022/03/17 07:58:04;;;;;;;22.33;2.45;;;8.10;99.90;;;;;;5111725;27;21654;-71
2022/03/17 08:00:30;;;;;;;24.73;2.17;;;8.10;99.90;;;;;;5110089;27;20291;-71
2022/03/17 08:02:56;;;;;;;18.35;2.95;;;8.00;99.90;;;;;;5110631;27;20039;-70
2022/03/17 08:05:21;;;;;;;27.90;2.53;;;7.90;99.90;;;;;;5108027;27;20119;-70
2022/03/17 08:07:48;;;;;;;16.33;2.65;;;7.90;99.90;;;;;;5111878;27;20023;-69
2022/03/17 08:10:15;;;;;;;23.50;3.58;;;7.80;99.90;;;;;;5111440;27;20035;-69
2022/03/17 08:12:41;;;;;;;26.02;3.03;;;7.80;99.90;;;;;;5109742;27;20497;-68
2022/03/17 08:15:07;;;;;;;14.25;2.97;;;7.90;99.90;;;;;;5110690;27;20185;-69
2022/03/17 08:17:33;;;;;;;20.45;2.92;;;7.90;99.90;;;;;;5112405;27;20084;-67
2022/03/17 08:19:59;;;;;;;24.27;3.40;;;8.00;99.90;;;;;;5113040;27;20382;-67
2022/03/17 08:22:27;;;;;;;20.50;2.70;;;8.00;99.90;;;;;;5112121;28;20087;-69
2022/03/17 08:24:53;;;;;;;13.35;2.13;;;8.00;99.90;;;;;;5098600;28;20035;-66
2022/03/17 08:27:18;;;;;;;16.13;1.80;;;8.00;99.90;;;;;;5113432;28;20031;-68
2022/03/17 08:29:44;;;;;;;13.60;2.10;;;8.00;99.90;;;;;;5112012;28;20047;-70
2022/03/17 08:32:10;;;;;;;14.70;1.95;;;8.00;99.90;;;;;;5100160;28;20903;-68
2022/03/17 08:34:37;;;;;;;13.45;1.48;;;7.90;99.90;;;;;;5093405;28;20051;-66
2022/03/17 08:37:03;;;;;;;21.02;2.20;;;8.00;99.90;;;;;;5116910;28;20399;-69
2022/03/17 08:39:29;;;;;;;14.65;2.83;;;8.00;99.90;;;;;;5113217;28;20039;-67
2022/03/17 08:41:56;;;;;;;15.43;2.70;;;8.00;99.90;;;;;;5111984;28;20439;-67
2022/03/17 08:44:22;;;;;;;13.55;2.75;;;8.00;99.90;;;;;;5113679;28;20075;-69
2022/03/17 08:49:32;;;;;;;16.42;2.50;;;8.00;99.90;;;;;;5112037;28;20500;-66
2022/03/17 08:52:02;;;;;;;19.45;3.30;;;7.90;99.90;;;;;;5112712;28;20035;-66
2022/03/17 08:54:29;;;;;;;20.38;2.53;;;8.00;99.90;;;;;;5113985;28;20050;-66
2022/03/17 08:57:01;;;;;;;21.33;2.15;;;8.10;99.90;;;;;;5109176;28;20087;-67
2022/03/17 08:59:30;;;;;;;16.98;2.97;;;8.20;99.90;;;;;;5113230;28;20509;-70
2022/03/17 09:01:58;;;;;;;13.10;2.13;;;8.30;99.90;;;;;;5112356;28;20542;-68
2022/03/17 09:04:23;;;;;;;23.98;2.33;;;8.40;99.90;;;;;;5108984;28;20047;-69
2022/03/17 09:06:49;;;;;;;18.67;2.13;;;8.50;99.90;;;;;;5106350;28;20035;-70
2022/03/17 09:09:14;;;;;;;18.50;2.30;;;8.50;99.90;;;;;;5112771;28;20031;-70
2022/03/17 09:11:40;;;;;;;21.42;3.00;;;8.50;99.90;;;;;;5111742;28;20050;-69
2022/03/17 09:14:07;;;;;;;20.00;2.35;;;8.50;99.90;;;;;;5112534;28;20039;-68
2022/03/17 09:16:33;;;;;;;20.98;2.33;;;8.30;99.90;;;;;;5112530;28;20058;-67
2022/03/17 09:18:58;;;;;;;18.02;2.53;;;8.30;99.90;;;;;;5117117;27;20126;-69
2022/03/17 09:21:25;;;;;;;18.42;2.50;;;8.30;99.90;;;;;;5112267;28;20129;-70
2022/03/17 09:23:51;;;;;;;20.00;2.78;;;8.20;99.90;;;;;;5112132;28;20084;-68
2022/03/17 09:26:16;;;;;;;11.70;1.88;;;8.10;99.90;;;;;;5112314;28;20039;-70
2022/03/17 09:28:43;;;;;;;14.02;1.73;;;8.20;99.90;;;;;;5128263;27;20038;-70
2022/03/17 09:31:09;;;;;;;13.32;2.15;;;8.20;99.90;;;;;;5123123;28;20438;-67
2022/03/17 09:33:35;;;;;;;14.35;2.10;;;8.20;99.90;;;;;;5108539;28;20070;-68
2022/03/17 09:36:04;;;;;;;15.23;2.42;;;8.20;99.90;;;;;;5100065;28;20075;-68
2022/03/17 09:38:29;;;;;;;29.63;3.00;;;8.20;99.90;;;;;;5115433;27;20491;-68
2022/03/17 09:40:57;;;;;;;10.23;1.63;;;8.20;99.90;;;;;;5113305;27;20051;-67
2022/03/17 09:43:22;;;;;;;18.73;1.90;;;8.20;99.90;;;;;;5099129;27;20039;-70
2022/03/17 09:45:53;;;;;;;13.45;1.88;;;8.20;99.90;;;;;;5103255;27;20370;-68
2022/03/17 09:48:21;;;;;;;11.60;1.77;;;8.30;99.90;;;;;;5102752;27;20031;-70
2022/03/17 09:50:53;;;;;;;21.90;2.42;;;8.40;99.90;;;;;;5114085;27;20043;-68
2022/03/17 09:53:19;;;;;;;13.60;2.10;;;8.50;99.90;;;;;;5113570;27;20057;-69
2022/03/17 09:55:44;;;;;;;11.95;1.55;;;8.60;99.90;;;;;;5122854;27;20035;-70
2022/03/17 09:58:10;;;;;;;16.10;2.92;;;8.80;99.90;;;;;;5114520;27;20547;-69
2022/03/17 10:00:48;;;;;;;13.00;1.95;;;8.90;99.90;;;;;;5113853;27;20054;-68
2022/03/17 10:03:25;;;;;;;9.63;1.60;;;9.00;99.90;;;;;;5113847;27;20085;-70
2022/03/17 10:05:52;;;;;;;10.30;1.83;;;9.10;99.90;;;;;;5115060;27;20039;-68
2022/03/17 10:08:20;;;;;;;15.85;2.10;;;9.20;99.90;;;;;;5131190;27;20047;-68
2022/03/17 10:10:46;;;;;;;12.73;1.70;;;9.30;99.90;;;;;;5110301;27;20406;-70
2022/03/17 10:13:14;;;;;;;8.60;1.85;;;9.50;99.90;;;;;;5114530;27;20402;-67
2022/03/17 10:15:41;;;;;;;16.02;1.55;;;9.50;99.90;;;;;;5113508;27;20051;-69
2022/03/17 10:18:23;;;;;;;12.32;1.88;;;9.60;99.90;;;;;;5114351;27;20031;-68
2022/03/17 10:21:08;;;;;;;4.22;1.13;;;9.60;99.90;;;;;;5113694;27;20103;-69
2022/03/17 10:23:42;;;;;;;17.63;2.78;;;9.70;99.90;;;;;;5117566;27;20456;-70
2022/03/17 10:26:07;;;;;;;8.32;1.20;;;9.70;99.90;;;;;;5114877;27;20395;-72
2022/03/17 10:28:33;;;;;;;11.60;1.65;;;9.70;99.90;;;;;;5113349;27;20042;-70
2022/03/17 10:31:07;;;;;;;14.43;1.75;;;9.70;99.90;;;;;;5114260;27;20035;-68
2022/03/17 10:33:33;;;;;;;12.30;2.30;;;9.80;99.90;;;;;;5114145;27;20075;-70
2022/03/17 10:36:21;;;;;;;12.48;2.50;;;10.00;99.90;;;;;;5113819;27;20075;-69
2022/03/17 10:38:51;;;;;;;15.43;1.90;;;10.10;99.90;;;;;;5093788;27;20035;-70
2022/03/17 10:41:17;;;;;;;13.15;2.35;;;10.10;99.90;;;;;;5097488;27;20405;-68
2022/03/17 10:43:43;;;;;;;14.63;1.80;;;10.00;99.90;;;;;;5113268;27;20054;-68
2022/03/17 10:46:15;;;;;;;11.77;1.65;;;9.90;99.90;;;;;;5109261;27;20035;-67
2022/03/17 10:48:57;;;;;;;7.72;1.90;;;9.90;99.90;;;;;;5112525;27;20501;-68
2022/03/17 10:51:52;;;;;;;11.18;1.63;;;10.10;99.90;;;;;;5103485;27;20117;-69
2022/03/17 10:54:18;;;;;;;17.35;2.92;;;10.30;99.90;;;;;;5106560;27;20062;-69
2022/03/17 10:57:09;;;;;;;11.50;1.48;;;10.50;99.90;;;;;;5113864;27;20040;-70
2022/03/17 10:59:43;;;;;;;11.32;2.08;;;10.50;99.90;;;;;;5113364;27;20443;-67
2022/03/17 11:02:10;;;;;;;18.33;2.33;;;10.50;99.90;;;;;;5114492;27;20118;-69
2022/03/17 11:04:38;;;;;;;7.57;1.40;;;10.80;99.90;;;;;;5114192;27;20096;-67
2022/03/17 11:07:11;;;;;;;11.73;1.60;;;10.70;99.90;;;;;;5112693;27;20042;-68
2022/03/17 11:09:40;;;;;;;13.27;2.00;;;10.80;99.90;;;;;;5109995;27;20035;-67
2022/03/17 11:12:08;;;;;;;17.80;3.05;;;10.80;99.90;;;;;;5113265;27;20043;-70
2022/03/17 11:14:39;;;;;;;17.77;1.92;;;10.90;99.90;;;;;;5113841;27;20517;-69
2022/03/17 11:17:06;;;;;;;9.73;1.70;;;11.00;99.90;;;;;;5112110;27;20035;-68
2022/03/17 11:19:33;;;;;;;18.27;2.45;;;10.90;99.90;;;;;;5113705;27;20051;-66
2022/03/17 11:22:09;;;;;;;13.75;1.85;;;10.70;99.90;;;;;;5113318;27;20070;-68
2022/03/17 11:24:36;;;;;;;17.35;1.83;;;10.50;99.90;;;;;;5101075;27;20118;-67
2022/03/17 11:27:14;;;;;;;11.82;1.95;;;10.40;99.90;;;;;;5113318;27;20457;-68
2022/03/17 11:29:44;;;;;;;12.90;2.03;;;10.30;99.90;;;;;;5113794;27;20043;-69
2022/03/17 11:32:24;;;;;;;11.35;1.90;;;10.40;99.90;;;;;;5113434;27;20043;-68
2022/03/17 11:34:50;;;;;;;9.80;2.60;;;10.50;99.90;;;;;;5113284;27;20133;-68
2022/03/17 11:37:23;;;;;;;13.27;1.83;;;10.40;99.90;;;;;;5113557;27;20454;-68
2022/03/17 11:40:00;;;;;;;17.27;2.58;;;10.50;99.90;;;;;;5128171;27;20485;-68
2022/03/17 11:42:36;;;;;;;24.85;2.83;;;10.40;99.90;;;;;;5101828;27;20374;-67
2022/03/17 11:45:31;;;;;;;12.18;2.97;;;10.20;99.90;;;;;;5112776;27;20048;-69
2022/03/17 11:47:58;;;;;;;19.38;2.53;;;10.50;99.90;;;;;;5111905;27;20077;-67
2022/03/17 11:50:38;;;;;;;13.90;2.78;;;10.80;99.90;;;;;;5111205;27;20035;-67
2022/03/17 11:53:14;;;;;;;11.27;2.55;;;10.90;99.90;;;;;;5108981;27;20092;-66
2022/03/17 11:55:42;;;;;;;19.17;2.88;;;10.90;99.90;;;;;;5109204;27;20319;-67
2022/03/17 11:58:29;;;;;;;15.68;2.38;;;10.90;99.90;;;;;;5110433;27;20039;-67
2022/03/17 12:01:11;;;;;;;13.40;1.92;;;11.00;99.90;;;;;;5105193;27;20378;-67
2022/03/17 12:03:42;;;;;;;13.43;2.10;;;10.90;99.90;;;;;;5127793;27;20103;-68
2022/03/17 12:06:14;;;;;;;13.23;2.13;;;10.80;99.90;;;;;;5112744;27;20039;-68
2022/03/17 12:08:48;;;;;;;8.52;2.38;;;10.90;99.90;;;;;;5112030;27;20277;-68
2022/03/17 12:11:16;;;;;;;15.38;2.85;;;10.90;99.90;;;;;;5110872;27;20087;-66
2022/03/17 12:13:42;;;;;;;13.05;2.58;;;10.60;99.90;;;;;;5112409;27;20489;-67
2022/03/17 12:16:12;;;;;;;13.18;3.28;;;10.40;99.90;;;;;;5113214;27;20035;-70
2022/03/17 12:19:00;;;;;;;12.70;2.08;;;10.40;99.90;;;;;;5098036;27;20058;-68
2022/03/17 12:21:57;;;;;;;16.33;2.28;;;10.30;99.90;;;;;;5112598;27;20501;-65
2022/03/17 12:24:45;;;;;;;14.35;2.50;;;10.40;99.90;;;;;;5112513;28;20047;-67
2022/03/17 12:27:11;;;;;;;12.77;1.90;;;10.70;99.90;;;;;;5109443;28;20031;-69
2022/03/17 12:29:37;;;;;;;11.02;2.40;;;10.90;99.90;;;;;;5107751;27;20047;-67
2022/03/17 12:32:11;;;;;;;12.68;2.40;;;11.00;99.90;;;;;;5104236;28;20131;-68
2022/03/17 12:34:39;;;;;;;17.27;2.15;;;10.80;99.90;;;;;;5112258;28;20490;-67
2022/03/17 12:37:06;;;;;;;17.00;1.95;;;10.80;99.90;;;;;;5107399;27;20541;-66
2022/03/17 12:39:33;;;;;;;9.73;2.20;;;10.80;99.90;;;;;;5109447;28;20101;-66
2022/03/17 12:42:00;;;;;;;14.25;2.60;;;11.00;99.90;;;;;;5110970;28;20053;-67
2022/03/17 12:44:26;;;;;;;10.55;1.55;;;11.10;99.90;;;;;;5096544;28;20040;-66
2022/03/17 12:46:53;;;;;;;9.80;1.65;;;11.10;99.90;;;;;;5111302;28;20035;-68
2022/03/17 12:49:19;;;;;;;14.20;2.35;;;11.10;99.90;;;;;;5111756;28;20091;-68
2022/03/17 12:51:46;;;;;;;12.73;2.55;;;11.00;99.90;;;;;;5111894;28;20249;-68